createdAt,value
2023-05-06T00:00:08.631Z,65.71
2023-05-06T00:02:45.306Z,65.60
2023-05-06T00:05:12.572Z,65.34
2023-05-06T00:07:39.828Z,65.62
2023-05-06T00:10:07.151Z,65.41
2023-05-06T00:12:34.169Z,65.43
2023-05-06T00:15:01.215Z,65.03
2023-05-06T00:17:28.167Z,65.04
2023-05-06T00:19:56.243Z,64.71
2023-05-06T00:22:23.153Z,64.51
2023-05-06T00:24:50.189Z,64.40
2023-05-06T00:27:17.095Z,64.29
2023-05-06T00:29:44.051Z,64.24
2023-05-06T00:32:11.413Z,64.10
2023-05-06T00:34:38.435Z,64.20
2023-05-06T00:37:05.316Z,63.94
2023-05-06T00:39:32.350Z,64.21
2023-05-06T00:42:02.408Z,63.65
2023-05-06T00:44:31.902Z,63.80
2023-05-06T00:47:01.097Z,63.77
2023-05-06T00:49:29.728Z,63.69
2023-05-06T00:51:58.003Z,63.85
2023-05-06T00:54:26.639Z,63.91
2023-05-06T00:56:54.362Z,63.73
2023-05-06T00:59:23.097Z,63.79
2023-05-06T01:01:52.280Z,63.68
2023-05-06T01:04:19.556Z,63.53
2023-05-06T01:07:01.284Z,63.57
2023-05-06T01:10:02.966Z,63.97
2023-05-06T01:12:37.717Z,64.01
2023-05-06T01:15:29.036Z,63.85
2023-05-06T01:17:59.215Z,63.40
2023-05-06T01:20:27.748Z,63.85
2023-05-06T01:22:55.474Z,63.71
2023-05-06T01:25:24.009Z,63.65
2023-05-06T01:27:50.963Z,63.45
2023-05-06T01:30:19.860Z,63.40
2023-05-06T01:32:58.803Z,63.43
2023-05-06T01:35:35.772Z,63.34
2023-05-06T01:38:17.518Z,63.45
2023-05-06T01:40:47.010Z,63.32
2023-05-06T01:43:15.430Z,63.39
2023-05-06T01:45:43.402Z,63.08
2023-05-06T01:48:10.620Z,63.42
2023-05-06T01:50:37.993Z,62.98
2023-05-06T01:53:04.991Z,63.24
2023-05-06T01:55:32.312Z,63.29
2023-05-06T01:57:59.246Z,63.15
2023-05-06T02:00:26.780Z,63.35
2023-05-06T02:02:53.989Z,63.09
2023-05-06T02:05:21.010Z,63.09
2023-05-06T02:07:52.506Z,62.92
2023-05-06T02:10:20.004Z,63.28
2023-05-06T02:12:53.243Z,63.24
2023-05-06T02:15:20.306Z,63.00
2023-05-06T02:17:47.271Z,62.89
2023-05-06T02:20:14.221Z,62.79
2023-05-06T02:22:41.085Z,62.98
2023-05-06T02:25:09.311Z,62.85
2023-05-06T02:27:36.523Z,63.13
2023-05-06T02:30:03.833Z,63.24
2023-05-06T02:32:30.785Z,63.38
2023-05-06T02:34:57.795Z,63.29
2023-05-06T02:37:24.676Z,63.22
2023-05-06T02:42:47.779Z,63.06
2023-05-06T02:45:14.800Z,63.47
2023-05-06T02:47:42.052Z,63.06
2023-05-06T02:50:10.919Z,63.24
2023-05-06T02:52:37.909Z,63.13
2023-05-06T02:55:06.035Z,62.88
2023-05-06T02:57:33.460Z,62.53
2023-05-06T03:00:00.570Z,62.87
2023-05-06T03:02:27.608Z,62.89
2023-05-06T03:04:54.843Z,62.75
2023-05-06T03:07:21.918Z,62.53
2023-05-06T03:09:49.298Z,62.83
2023-05-06T03:12:16.393Z,63.15
2023-05-06T03:14:43.337Z,63.06
2023-05-06T03:17:11.395Z,63.27
2023-05-06T03:19:38.478Z,62.86
2023-05-06T03:22:08.120Z,62.98
2023-05-06T03:24:38.182Z,63.13
2023-05-06T03:27:06.664Z,63.09
2023-05-06T03:29:34.233Z,63.16
2023-05-06T03:32:05.162Z,63.18
2023-05-06T03:34:38.053Z,63.36
2023-05-06T03:37:07.337Z,63.13
2023-05-06T03:39:34.726Z,62.94
2023-05-06T03:42:02.474Z,63.06
2023-05-06T03:44:29.714Z,63.44
2023-05-06T03:46:57.030Z,63.39
2023-05-06T03:49:24.553Z,63.34
2023-05-06T03:51:53.562Z,63.33
2023-05-06T03:54:22.366Z,62.95
2023-05-06T03:56:49.744Z,63.33
2023-05-06T03:59:17.330Z,63.26
2023-05-06T04:01:44.947Z,62.84
2023-05-06T04:04:13.212Z,62.73
2023-05-06T04:06:40.285Z,63.07
2023-05-06T04:09:08.121Z,62.92
2023-05-06T04:11:37.689Z,62.91
2023-05-06T04:14:07.113Z,62.84
2023-05-06T04:16:34.974Z,62.66
2023-05-06T04:19:05.778Z,63.10
2023-05-06T04:21:34.737Z,63.04
2023-05-06T04:24:06.500Z,62.77
2023-05-06T04:26:37.513Z,63.01
2023-05-06T04:29:05.184Z,62.90
2023-05-06T04:31:35.298Z,62.79
2023-05-06T04:34:05.234Z,63.28
2023-05-06T04:36:32.981Z,63.42
2023-05-06T04:39:21.560Z,63.64
2023-05-06T04:41:49.517Z,63.80
2023-05-06T04:44:22.532Z,63.51
2023-05-06T04:46:49.739Z,64.04
2023-05-06T04:49:16.753Z,64.30
2023-05-06T04:51:44.765Z,63.76
2023-05-06T04:54:11.775Z,64.64
2023-05-06T04:56:40.496Z,64.31
2023-05-06T04:59:09.514Z,64.59
2023-05-06T05:01:37.410Z,64.98
2023-05-06T05:04:04.452Z,64.78
2023-05-06T05:06:32.191Z,65.01
2023-05-06T05:09:00.029Z,64.98
2023-05-06T05:11:28.178Z,65.37
2023-05-06T05:13:59.487Z,65.28
2023-05-06T05:16:28.509Z,65.51
2023-05-06T05:18:56.400Z,65.57
2023-05-06T05:21:27.919Z,65.65
2023-05-06T05:23:56.260Z,65.64
2023-05-06T05:26:23.423Z,65.91
2023-05-06T05:28:52.885Z,65.56
2023-05-06T05:31:19.874Z,65.58
2023-05-06T05:33:47.819Z,65.79
2023-05-06T05:36:18.529Z,65.81
2023-05-06T05:38:47.898Z,65.70
2023-05-06T05:41:17.456Z,65.65
2023-05-06T05:43:45.735Z,65.23
2023-05-06T05:46:14.314Z,65.28
2023-05-06T05:48:43.586Z,65.02
2023-05-06T05:51:11.375Z,65.26
2023-05-06T05:53:39.209Z,65.14
2023-05-06T05:56:07.659Z,65.57
2023-05-06T05:58:34.849Z,65.63
2023-05-06T06:01:01.849Z,65.59
2023-05-06T06:03:29.741Z,64.98
2023-05-06T06:05:56.886Z,64.60
2023-05-06T06:08:26.590Z,63.88
2023-05-06T06:10:54.977Z,63.82
2023-05-06T06:13:27.263Z,63.17
2023-05-06T06:15:57.119Z,62.42
2023-05-06T06:18:24.429Z,61.98
2023-05-06T06:20:53.303Z,61.11
2023-05-06T06:23:21.196Z,60.90
2023-05-06T06:25:48.392Z,60.67
2023-05-06T06:28:16.150Z,60.20
2023-05-06T06:30:44.508Z,59.94
2023-05-06T06:33:11.926Z,59.13
2023-05-06T06:35:40.128Z,58.97
2023-05-06T06:38:07.132Z,58.72
2023-05-06T06:40:34.194Z,57.74
2023-05-06T06:43:01.358Z,57.43
2023-05-06T06:45:53.688Z,56.75
2023-05-06T06:48:20.813Z,55.28
2023-05-06T06:50:47.887Z,54.96
2023-05-06T06:53:14.886Z,53.49
2023-05-06T06:55:45.847Z,52.11
2023-05-06T06:58:13.009Z,51.27
2023-05-06T07:00:39.938Z,49.96
2023-05-06T07:03:06.957Z,48.47
2023-05-06T07:05:33.996Z,47.71
2023-05-06T07:08:01.056Z,46.29
2023-05-06T07:10:28.107Z,45.33
2023-05-06T07:12:55.179Z,44.62
2023-05-06T07:15:22.304Z,43.49
2023-05-06T07:17:49.348Z,42.32
2023-05-06T07:20:16.400Z,40.84
2023-05-06T07:22:44.530Z,40.35
2023-05-06T07:25:12.002Z,38.97
2023-05-06T07:27:39.064Z,37.21
2023-05-06T07:30:06.966Z,36.55
2023-05-06T07:32:34.045Z,35.89
2023-05-06T07:35:01.713Z,34.98
2023-05-06T07:37:28.727Z,33.37
2023-05-06T07:39:57.507Z,32.54
2023-05-06T07:42:24.672Z,31.87
2023-05-06T07:44:51.672Z,31.42
2023-05-06T07:47:28.433Z,30.75
2023-05-06T07:49:56.413Z,30.23
2023-05-06T07:52:24.072Z,30.09
2023-05-06T07:54:51.267Z,31.83
2023-05-06T07:57:18.272Z,33.64
2023-05-06T07:59:48.740Z,33.39
2023-05-06T08:02:16.270Z,33.91
2023-05-06T08:04:43.616Z,35.92
2023-05-06T08:07:11.644Z,35.39
2023-05-06T08:09:38.668Z,35.11
2023-05-06T08:12:06.159Z,36.12
2023-05-06T08:14:33.298Z,35.74
2023-05-06T08:17:00.345Z,35.52
2023-05-06T08:19:27.406Z,36.30
2023-05-06T08:21:54.444Z,38.61
2023-05-06T08:24:21.350Z,39.15
2023-05-06T08:26:48.297Z,39.31
2023-05-06T08:29:15.788Z,38.90
2023-05-06T08:31:43.643Z,39.25
2023-05-06T08:34:10.690Z,40.89
2023-05-06T08:36:37.994Z,43.62
2023-05-06T08:39:06.116Z,44.20
2023-05-06T08:41:37.368Z,47.00
2023-05-06T08:44:05.965Z,47.86
2023-05-06T08:46:33.063Z,50.18
2023-05-06T08:49:00.504Z,51.05
2023-05-06T08:51:31.870Z,51.99
2023-05-06T08:54:02.917Z,53.08
2023-05-06T08:56:33.243Z,53.23
2023-05-06T08:59:01.411Z,53.68
2023-05-06T09:01:29.233Z,54.90
2023-05-06T09:03:57.711Z,54.74
2023-05-06T09:06:25.415Z,55.00
2023-05-06T09:08:52.634Z,55.34
2023-05-06T09:11:24.725Z,55.71
2023-05-06T09:14:07.137Z,56.71
2023-05-06T09:16:34.292Z,56.45
2023-05-06T09:19:01.374Z,58.00
2023-05-06T09:21:40.308Z,59.02
2023-05-06T09:24:09.549Z,58.13
2023-05-06T09:26:38.651Z,57.89
2023-05-06T09:29:06.791Z,58.05
2023-05-06T09:31:40.027Z,57.48
2023-05-06T09:34:07.689Z,57.93
2023-05-06T09:36:35.218Z,57.65
2023-05-06T09:39:02.269Z,58.26
2023-05-06T09:41:29.764Z,57.56
2023-05-06T09:43:58.224Z,58.08
2023-05-06T09:46:27.797Z,58.73
2023-05-06T09:48:57.267Z,59.20
2023-05-06T09:51:24.542Z,59.70
2023-05-06T09:53:52.597Z,60.22
2023-05-06T09:56:21.854Z,59.21
2023-05-06T09:58:50.191Z,59.75
2023-05-06T10:01:32.543Z,60.13
2023-05-06T10:04:06.378Z,59.59
2023-05-06T10:06:36.897Z,60.21
2023-05-06T10:09:06.400Z,61.06
2023-05-06T10:11:33.945Z,61.94
2023-05-06T10:14:02.411Z,61.55
2023-05-06T10:16:30.078Z,61.15
2023-05-06T10:18:59.286Z,59.56
2023-05-06T10:21:29.389Z,61.42
2023-05-06T10:24:09.195Z,61.43
2023-05-06T10:26:38.147Z,61.27
2023-05-06T10:29:09.908Z,61.59
2023-05-06T10:31:48.525Z,62.90
2023-05-06T10:34:19.808Z,63.75
2023-05-06T10:36:50.801Z,62.91
2023-05-06T10:39:18.425Z,63.60
2023-05-06T10:41:45.618Z,63.33
2023-05-06T10:44:13.624Z,63.71
2023-05-06T10:46:58.869Z,63.52
2023-05-06T10:49:26.812Z,63.38
2023-05-06T10:52:13.870Z,63.49
2023-05-06T10:54:51.697Z,63.47
2023-05-06T10:57:20.896Z,63.72
2023-05-06T10:59:49.017Z,64.45
2023-05-06T11:02:20.465Z,64.67
2023-05-06T11:04:53.209Z,65.21
2023-05-06T11:07:24.304Z,64.82
2023-05-06T11:09:59.581Z,64.82
2023-05-06T11:12:51.690Z,64.88
2023-05-06T11:15:38.750Z,64.30
2023-05-06T11:18:34.034Z,65.18
2023-05-06T11:21:03.681Z,65.21
2023-05-06T11:23:43.103Z,65.70
2023-05-06T11:26:11.634Z,66.24
2023-05-06T11:28:39.604Z,66.16
2023-05-06T11:31:07.956Z,66.43
2023-05-06T11:33:36.735Z,66.15
2023-05-06T11:36:04.901Z,67.31
2023-05-06T11:38:46.158Z,67.67
2023-05-06T11:41:14.105Z,66.79
2023-05-06T11:43:52.521Z,66.94
2023-05-06T11:46:21.315Z,65.92
2023-05-06T11:48:48.469Z,65.81
2023-05-06T11:51:16.364Z,65.53
2023-05-06T11:53:43.399Z,64.81
2023-05-06T11:56:10.300Z,64.31
2023-05-06T11:58:37.236Z,64.08
2023-05-06T12:01:04.774Z,64.17
2023-05-06T12:03:34.098Z,64.11
2023-05-06T12:06:01.526Z,64.78
2023-05-06T12:08:35.091Z,65.37
2023-05-06T12:11:04.920Z,65.99
2023-05-06T12:13:32.128Z,65.97
2023-05-06T12:16:01.593Z,66.22
2023-05-06T12:18:29.200Z,66.63
2023-05-06T12:20:57.385Z,66.94
2023-05-06T12:23:24.568Z,67.92
2023-05-06T12:26:04.300Z,67.86
2023-05-06T12:28:33.100Z,66.58
2023-05-06T12:31:01.625Z,66.26
2023-05-06T12:33:29.831Z,65.85
2023-05-06T12:36:07.476Z,66.50
2023-05-06T12:38:34.510Z,66.05
2023-05-06T12:41:01.437Z,66.41
2023-05-06T12:43:32.825Z,66.69
2023-05-06T12:46:07.623Z,67.17
2023-05-06T12:48:36.004Z,67.80
2023-05-06T12:51:19.526Z,68.96
2023-05-06T12:53:46.786Z,69.49
2023-05-06T12:56:13.984Z,68.65
2023-05-06T12:58:41.308Z,68.30
2023-05-06T13:01:08.460Z,68.67
2023-05-06T13:03:38.616Z,68.48
2023-05-06T13:06:06.300Z,68.76
2023-05-06T13:08:33.994Z,69.07
2023-05-06T13:11:02.678Z,68.55
2023-05-06T13:13:29.672Z,68.11
2023-05-06T13:15:57.204Z,67.50
2023-05-06T13:18:24.212Z,67.86
2023-05-06T13:20:51.948Z,67.61
2023-05-06T13:23:19.724Z,67.81
2023-05-06T13:26:00.717Z,68.23
2023-05-06T13:28:32.202Z,68.96
2023-05-06T13:30:59.673Z,68.38
2023-05-06T13:33:26.681Z,67.93
2023-05-06T13:35:53.842Z,68.78
2023-05-06T13:38:21.131Z,69.20
2023-05-06T13:40:50.870Z,68.56
2023-05-06T13:43:18.603Z,68.60
2023-05-06T13:45:45.653Z,68.05
2023-05-06T13:48:13.527Z,67.39
2023-05-06T13:50:45.225Z,67.12
2023-05-06T13:53:13.329Z,67.36
2023-05-06T13:55:41.405Z,66.88
2023-05-06T13:58:08.594Z,66.74
2023-05-06T14:00:36.389Z,66.43
2023-05-06T14:03:03.542Z,66.12
2023-05-06T14:05:30.669Z,65.38
2023-05-06T14:07:57.512Z,64.87
2023-05-06T14:10:24.509Z,65.61
2023-05-06T14:12:54.809Z,65.84
2023-05-06T14:15:22.161Z,65.51
2023-05-06T14:17:49.112Z,65.05
2023-05-06T14:20:16.302Z,65.30
2023-05-06T14:22:44.095Z,64.29
2023-05-06T14:25:11.518Z,65.33
2023-05-06T14:27:38.745Z,64.97
2023-05-06T14:30:09.003Z,64.22
2023-05-06T14:32:37.118Z,64.12
2023-05-06T14:35:04.491Z,64.24
2023-05-06T14:37:31.426Z,64.60
2023-05-06T14:39:58.425Z,64.42
2023-05-06T14:42:25.445Z,64.59
2023-05-06T14:44:52.388Z,64.36
2023-05-06T14:47:19.401Z,64.09
2023-05-06T14:49:46.326Z,63.73
2023-05-06T14:52:13.356Z,63.05
2023-05-06T14:54:43.872Z,63.95
2023-05-06T14:57:11.836Z,63.92
2023-05-06T14:59:38.913Z,63.45
2023-05-06T15:02:08.777Z,63.58
2023-05-06T15:04:36.655Z,64.46
2023-05-06T15:07:03.759Z,64.28
2023-05-06T15:09:31.196Z,64.94
2023-05-06T15:11:58.503Z,64.84
2023-05-06T15:14:25.557Z,65.16
2023-05-06T15:16:59.023Z,65.19
2023-05-06T15:19:26.184Z,65.73
2023-05-06T15:21:53.065Z,65.06
2023-05-06T15:24:20.023Z,65.22
2023-05-06T15:26:47.038Z,65.35
2023-05-06T15:29:14.045Z,65.69
2023-05-06T15:31:43.758Z,65.50
2023-05-06T15:34:11.825Z,65.91
2023-05-06T15:36:40.285Z,66.12
2023-05-06T15:39:07.768Z,66.13
2023-05-06T15:41:36.397Z,66.13
2023-05-06T15:44:06.182Z,66.13
2023-05-06T15:46:33.669Z,66.37
2023-05-06T15:51:30.999Z,66.72
2023-05-06T15:53:58.266Z,66.57
2023-05-06T15:56:26.998Z,67.38
2023-05-06T15:58:55.369Z,67.34
2023-05-06T16:01:40.261Z,67.42
2023-05-06T16:04:09.654Z,66.99
2023-05-06T16:06:36.717Z,66.79
2023-05-06T16:09:04.145Z,66.18
2023-05-06T16:11:31.429Z,66.37
2023-05-06T16:13:58.970Z,66.99
2023-05-06T16:16:26.037Z,67.08
2023-05-06T16:18:53.222Z,66.20
2023-05-06T16:21:20.581Z,66.41
2023-05-06T16:23:47.591Z,65.93
2023-05-06T16:26:14.929Z,65.93
2023-05-06T16:28:41.911Z,66.12
2023-05-06T16:31:09.247Z,66.23
2023-05-06T16:33:36.274Z,66.38
2023-05-06T16:36:03.756Z,66.40
2023-05-06T16:38:30.798Z,67.31
2023-05-06T16:40:58.191Z,67.26
2023-05-06T16:43:25.143Z,67.24
2023-05-06T16:45:52.204Z,67.41
2023-05-06T16:48:19.424Z,67.46
2023-05-06T16:50:46.498Z,67.25
2023-05-06T16:53:13.618Z,67.57
2023-05-06T16:55:49.931Z,67.41
2023-05-06T16:58:16.999Z,66.89
2023-05-06T17:00:44.099Z,66.86
2023-05-06T17:03:11.881Z,66.03
2023-05-06T17:05:39.823Z,65.75
2023-05-06T17:08:07.339Z,65.80
2023-05-06T17:10:35.035Z,65.71
2023-05-06T17:13:02.117Z,65.53
2023-05-06T17:15:29.103Z,65.29
2023-05-06T17:17:56.073Z,65.20
2023-05-06T17:20:23.504Z,65.09
2023-05-06T17:22:50.577Z,64.16
2023-05-06T17:25:17.727Z,64.92
2023-05-06T17:27:45.122Z,65.70
2023-05-06T17:30:12.730Z,65.49
2023-05-06T17:32:40.282Z,64.85
2023-05-06T17:35:08.115Z,65.44
2023-05-06T17:37:35.387Z,64.84
2023-05-06T17:40:03.359Z,66.01
2023-05-06T17:42:31.640Z,67.07
2023-05-06T17:44:58.678Z,67.45
2023-05-06T17:47:30.267Z,67.49
2023-05-06T17:49:57.789Z,67.44
2023-05-06T17:52:28.523Z,67.40
2023-05-06T17:57:28.617Z,66.81
2023-05-06T17:59:55.875Z,66.01
2023-05-06T18:02:23.089Z,65.31
2023-05-06T18:04:50.394Z,64.52
2023-05-06T18:07:17.534Z,64.82
2023-05-06T18:09:52.077Z,65.49
2023-05-06T18:12:19.558Z,65.63
2023-05-06T18:14:47.679Z,65.65
2023-05-06T18:17:14.616Z,65.28
2023-05-06T18:19:41.508Z,65.61
2023-05-06T18:22:08.461Z,65.32
2023-05-06T18:24:37.423Z,64.99
2023-05-06T18:27:04.652Z,64.81
2023-05-06T18:29:33.215Z,64.96
2023-05-06T18:32:02.139Z,65.20
2023-05-06T18:34:29.138Z,65.40
2023-05-06T18:36:57.975Z,65.29
2023-05-06T18:39:25.537Z,64.88
2023-05-06T18:41:52.623Z,64.04
2023-05-06T18:44:19.551Z,63.46
2023-05-06T18:46:46.590Z,63.77
2023-05-06T18:49:16.536Z,63.33
2023-05-06T18:51:43.532Z,63.23
2023-05-06T18:54:10.645Z,63.51
2023-05-06T18:56:37.687Z,63.01
2023-05-06T18:59:04.637Z,62.98
2023-05-06T19:01:31.641Z,63.25
2023-05-06T19:03:58.660Z,62.76
2023-05-06T19:06:25.890Z,62.92
2023-05-06T19:08:53.696Z,62.79
2023-05-06T19:11:21.280Z,62.30
2023-05-06T19:13:48.255Z,62.05
2023-05-06T19:16:15.292Z,60.85
2023-05-06T19:18:42.253Z,61.05
2023-05-06T19:21:10.934Z,61.05
2023-05-06T19:23:38.012Z,61.31
2023-05-06T19:26:10.026Z,60.09
2023-05-06T19:28:37.249Z,60.43
2023-05-06T19:31:09.800Z,61.05
2023-05-06T19:33:37.940Z,60.90
2023-05-06T19:36:05.410Z,60.42
2023-05-06T19:38:32.550Z,60.42
2023-05-06T19:40:59.462Z,60.67
2023-05-06T19:43:26.531Z,60.70
2023-05-06T19:45:54.068Z,60.40
2023-05-06T19:48:22.292Z,60.58
2023-05-06T19:50:49.646Z,60.17
2023-05-06T19:53:17.859Z,60.10
2023-05-06T19:55:44.848Z,59.42
2023-05-06T19:58:14.206Z,60.11
2023-05-06T20:00:41.246Z,59.84
2023-05-06T20:03:09.660Z,59.97
2023-05-06T20:05:37.948Z,59.52
2023-05-06T20:08:10.881Z,59.57
2023-05-06T20:10:39.276Z,59.34
2023-05-06T20:13:07.116Z,58.85
2023-05-06T20:15:35.574Z,58.87
2023-05-06T20:18:02.988Z,58.74
2023-05-06T20:20:34.706Z,58.28
2023-05-06T20:23:04.707Z,58.82
2023-05-06T20:25:32.401Z,59.46
2023-05-06T20:27:59.502Z,60.04
2023-05-06T20:30:27.023Z,60.03
2023-05-06T20:32:54.030Z,60.13
2023-05-06T20:35:21.085Z,60.73
2023-05-06T20:37:48.098Z,61.08
2023-05-06T20:40:15.380Z,60.45
2023-05-06T20:42:42.306Z,60.20
2023-05-06T20:45:09.759Z,59.96
2023-05-06T20:47:37.047Z,59.76
2023-05-06T20:50:04.425Z,59.54
2023-05-06T20:52:31.770Z,59.10
2023-05-06T20:54:58.849Z,59.51
2023-05-06T20:57:25.856Z,59.98
2023-05-06T20:59:53.032Z,60.06
2023-05-06T21:02:20.163Z,59.58
2023-05-06T21:04:47.471Z,59.19
2023-05-06T21:07:14.848Z,59.66
2023-05-06T21:09:41.809Z,59.77
2023-05-06T21:12:08.950Z,60.51
2023-05-06T21:14:36.047Z,60.08
2023-05-06T21:17:03.088Z,59.73
2023-05-06T21:19:30.062Z,59.59
2023-05-06T21:21:58.685Z,59.33
2023-05-06T21:24:25.657Z,58.52
2023-05-06T21:26:53.776Z,58.33
2023-05-06T21:29:21.727Z,58.07
2023-05-06T21:31:48.805Z,58.13
2023-05-06T21:34:16.003Z,58.42
2023-05-06T21:36:43.071Z,58.53
2023-05-06T21:39:12.196Z,58.54
2023-05-06T21:41:40.186Z,58.42
2023-05-06T21:44:08.467Z,58.32
2023-05-06T21:46:36.858Z,57.98
2023-05-06T21:49:04.271Z,57.96
2023-05-06T21:51:33.218Z,57.66
2023-05-06T21:54:00.966Z,57.88
2023-05-06T21:56:28.361Z,57.70
2023-05-06T21:58:58.188Z,57.39
2023-05-06T22:01:26.404Z,57.38
2023-05-06T22:03:54.251Z,56.79
2023-05-06T22:06:22.004Z,56.97
2023-05-06T22:08:49.201Z,56.14
2023-05-06T22:11:16.611Z,56.09
2023-05-06T22:13:43.483Z,55.52
2023-05-06T22:16:10.424Z,55.38
2023-05-06T22:18:41.281Z,54.45
2023-05-06T22:21:09.906Z,54.99
2023-05-06T22:23:37.382Z,53.89
2023-05-06T22:26:04.391Z,53.96
2023-05-06T22:28:31.400Z,54.21
2023-05-06T22:30:58.642Z,54.86
2023-05-06T22:33:27.094Z,55.05
2023-05-06T22:35:55.526Z,55.02
2023-05-06T22:38:23.429Z,54.94
2023-05-06T22:40:50.551Z,55.11
2023-05-06T22:43:17.450Z,54.58
2023-05-06T22:45:45.900Z,54.20
2023-05-06T22:48:13.068Z,54.64
2023-05-06T22:50:40.168Z,54.78
2023-05-06T22:53:15.028Z,55.14
2023-05-06T22:55:42.944Z,55.43
2023-05-06T22:58:09.933Z,55.10
2023-05-06T23:00:37.315Z,54.98
2023-05-06T23:03:06.065Z,54.69
2023-05-06T23:05:33.636Z,54.73
2023-05-06T23:08:00.707Z,55.38
2023-05-06T23:10:28.091Z,55.62
2023-05-06T23:12:54.983Z,54.93
2023-05-06T23:15:22.091Z,54.98
2023-05-06T23:17:49.006Z,55.21
2023-05-06T23:20:17.282Z,54.94
2023-05-06T23:22:44.200Z,54.97
2023-05-06T23:25:11.834Z,54.76
2023-05-06T23:27:40.546Z,54.87
2023-05-06T23:30:08.783Z,54.81
2023-05-06T23:32:36.026Z,54.54
2023-05-06T23:35:03.157Z,54.00
2023-05-06T23:37:30.229Z,53.74
2023-05-06T23:39:59.044Z,54.25
2023-05-06T23:42:26.392Z,54.78
2023-05-06T23:44:53.710Z,54.72
2023-05-06T23:47:20.762Z,55.56
2023-05-06T23:49:47.754Z,57.02
2023-05-06T23:52:14.683Z,57.30
2023-05-06T23:54:41.674Z,58.33
2023-05-06T23:57:08.609Z,59.71
2023-05-06T23:59:35.629Z,60.71
